UKHH/HRK METAR and TAF weather

Enter ICAO airport designator
Station Type Date Time Source
UKHH METAR 2020/09/22 19:30 UTC NOAA

UKHH 221930Z 00000MPS CAVOK 12/03 Q1021 R07/0///81 NOSIG


Station Type Date Time Source
UKHH Decoded METAR 2020/09/22 19:30 UTC NOAA

Kharkiv, Ukraine (UKHH) 49-58N 036-08E 155M
Sep 22, 2020 - 03:30 PM EDT / 2020.09.22 1930 UTC
Wind: Calm:0
Visibility: greater than 7 mile(s):0
Temperature: 53 F (12 C)
Dew Point: 37 F (3 C)
Relative Humidity: 54%
Pressure (altimeter): 30.15 in. Hg (1021 hPa)
ob: UKHH 221930Z 00000MPS CAVOK 12/03 Q1021 R07/0///81 NOSIG
cycle: 19

Station Type Date Time Source
UKHH TAF 2020/09/22 18:24 UTC NOAA

TAF UKHH 221703Z 2218/2318 25002MPS CAVOK TX25/2312Z TN09/2303Z
BECMG 2220/2222 18002MPS
TEMPO 2300/2306 2100 BR SCT007
TEMPO 2310/2312 14005G10MPS

Example: see airport list